createdAt,value
2023-05-14T00:02:12.747Z,13.62
2023-05-14T00:05:15.360Z,13.67
2023-05-14T00:08:17.281Z,13.60
2023-05-14T00:11:19.736Z,13.55
2023-05-14T00:14:21.927Z,13.59
2023-05-14T00:17:24.186Z,13.65
2023-05-14T00:20:26.159Z,13.60
2023-05-14T00:23:28.475Z,13.45
2023-05-14T00:26:30.406Z,13.12
2023-05-14T00:29:32.655Z,12.67
2023-05-14T00:32:34.876Z,12.60
2023-05-14T00:35:37.197Z,13.09
2023-05-14T00:38:39.079Z,13.59
2023-05-14T00:41:43.579Z,13.66
2023-05-14T00:44:45.763Z,13.23
2023-05-14T00:47:49.116Z,13.15
2023-05-14T00:50:51.818Z,13.02
2023-05-14T00:53:54.828Z,13.04
2023-05-14T00:56:57.771Z,13.43
2023-05-14T01:00:00.057Z,13.74
2023-05-14T01:03:03.510Z,13.53
2023-05-14T01:06:12.096Z,13.90
2023-05-14T01:09:59.756Z,13.83
2023-05-14T01:13:15.278Z,13.30
2023-05-14T01:16:20.059Z,13.50
2023-05-14T01:19:43.916Z,13.56
2023-05-14T01:22:47.036Z,13.40
2023-05-14T01:25:49.476Z,13.59
2023-05-14T01:28:53.301Z,13.59
2023-05-14T01:31:58.133Z,12.98
2023-05-14T01:35:01.794Z,13.11
2023-05-14T01:38:09.391Z,13.27
2023-05-14T01:41:12.787Z,13.50
2023-05-14T01:44:15.043Z,13.26
2023-05-14T01:47:16.948Z,12.60
2023-05-14T01:50:19.980Z,12.06
2023-05-14T01:53:21.899Z,11.82
2023-05-14T01:56:25.897Z,11.68
2023-05-14T01:59:29.925Z,11.97
2023-05-14T02:02:32.190Z,12.30
2023-05-14T02:05:34.529Z,12.67
2023-05-14T02:08:36.784Z,12.64
2023-05-14T02:11:38.757Z,12.44
2023-05-14T02:14:41.054Z,12.69
2023-05-14T02:17:43.046Z,12.42
2023-05-14T02:20:46.805Z,12.34
2023-05-14T02:23:49.662Z,12.14
2023-05-14T02:26:52.113Z,12.03
2023-05-14T02:29:54.201Z,12.06
2023-05-14T02:32:56.595Z,12.55
2023-05-14T02:35:58.992Z,12.55
2023-05-14T02:39:01.328Z,12.51
2023-05-14T02:42:03.601Z,12.74
2023-05-14T02:45:06.631Z,12.57
2023-05-14T02:48:08.744Z,12.58
2023-05-14T02:51:11.243Z,12.36
2023-05-14T02:54:13.235Z,12.09
2023-05-14T02:57:15.720Z,12.10
2023-05-14T03:00:18.130Z,12.23
2023-05-14T03:03:21.121Z,12.37
2023-05-14T03:06:23.539Z,12.23
2023-05-14T03:09:25.804Z,12.47
2023-05-14T03:12:27.948Z,12.75
2023-05-14T03:19:20.815Z,12.42
2023-05-14T03:22:22.997Z,12.23
2023-05-14T03:25:26.964Z,12.37
2023-05-14T03:28:29.524Z,12.20
2023-05-14T03:31:32.618Z,12.26
2023-05-14T03:34:35.941Z,12.27
2023-05-14T03:37:38.600Z,12.38
2023-05-14T03:40:41.095Z,12.31
2023-05-14T03:43:43.964Z,12.01
2023-05-14T03:46:47.062Z,12.26
2023-05-14T03:49:49.961Z,12.48
2023-05-14T03:52:52.920Z,12.60
2023-05-14T03:55:55.835Z,12.29
2023-05-14T03:58:58.768Z,12.38
2023-05-14T04:02:01.366Z,13.02
2023-05-14T04:05:04.678Z,13.71
2023-05-14T04:08:07.522Z,13.16
2023-05-14T04:11:09.740Z,13.65
2023-05-14T04:14:12.846Z,13.88
2023-05-14T04:17:17.378Z,14.89
2023-05-14T04:20:19.901Z,15.14
2023-05-14T04:23:22.679Z,13.60
2023-05-14T04:26:25.438Z,13.74
2023-05-14T04:29:28.072Z,13.11
2023-05-14T04:32:32.127Z,12.51
2023-05-14T04:35:35.292Z,12.87
2023-05-14T04:38:38.049Z,12.52
2023-05-14T04:41:40.198Z,12.14
2023-05-14T04:44:42.747Z,12.13
2023-05-14T04:47:45.738Z,11.75
2023-05-14T04:50:48.329Z,11.73
2023-05-14T04:53:50.824Z,11.94
2023-05-14T04:56:56.605Z,12.06
2023-05-14T04:59:59.166Z,11.96
2023-05-14T05:03:01.895Z,12.38
2023-05-14T05:06:04.291Z,12.14
2023-05-14T05:09:10.108Z,12.30
2023-05-14T05:12:12.389Z,12.31
2023-05-14T05:15:15.715Z,12.19
2023-05-14T05:18:18.044Z,12.57
2023-05-14T05:21:20.753Z,12.33
2023-05-14T05:24:22.998Z,12.50
2023-05-14T05:27:26.743Z,12.69
2023-05-14T05:30:29.151Z,12.48
2023-05-14T05:33:32.133Z,12.47
2023-05-14T05:36:34.869Z,12.51
2023-05-14T05:39:37.343Z,12.77
2023-05-14T05:42:39.784Z,12.81
2023-05-14T05:45:43.292Z,12.95
2023-05-14T05:48:45.464Z,13.09
2023-05-14T05:51:47.964Z,13.18
2023-05-14T05:54:50.684Z,13.26
2023-05-14T05:57:53.314Z,13.20
2023-05-14T06:00:58.075Z,13.30
2023-05-14T06:04:26.413Z,13.55
2023-05-14T06:07:28.861Z,13.60
2023-05-14T06:10:35.638Z,13.56
2023-05-14T06:13:38.030Z,13.63
2023-05-14T06:16:40.955Z,13.70
2023-05-14T06:19:43.532Z,13.80
2023-05-14T06:22:46.458Z,13.70
2023-05-14T06:25:50.955Z,13.84
2023-05-14T06:28:54.185Z,13.71
2023-05-14T06:32:03.983Z,13.74
2023-05-14T06:38:26.065Z,14.07
2023-05-14T06:41:31.957Z,13.86
2023-05-14T06:44:34.509Z,14.10
2023-05-14T06:47:37.619Z,13.87
2023-05-14T06:50:40.643Z,14.08
2023-05-14T06:53:43.509Z,14.13
2023-05-14T06:56:46.248Z,14.27
2023-05-14T06:59:49.554Z,14.30
2023-05-14T07:02:52.751Z,14.08
2023-05-14T07:05:56.090Z,14.10
2023-05-14T07:08:58.455Z,14.14
2023-05-14T07:12:01.325Z,14.18
2023-05-14T07:15:03.708Z,14.42
2023-05-14T07:18:06.391Z,13.98
2023-05-14T07:21:09.754Z,13.88
2023-05-14T07:24:13.056Z,14.14
2023-05-14T07:27:17.314Z,14.38
2023-05-14T07:30:21.165Z,14.32
2023-05-14T07:33:24.877Z,14.21
2023-05-14T07:36:28.555Z,14.38
2023-05-14T07:39:31.159Z,14.34
2023-05-14T07:42:36.942Z,14.45
2023-05-14T07:45:40.222Z,14.55
2023-05-14T07:48:42.900Z,14.51
2023-05-14T07:51:45.222Z,14.59
2023-05-14T07:54:49.407Z,14.79
2023-05-14T07:57:53.362Z,14.83
2023-05-14T08:00:57.295Z,14.82
2023-05-14T08:03:59.732Z,14.91
2023-05-14T08:07:02.312Z,15.02
2023-05-14T08:10:10.504Z,15.18
2023-05-14T08:13:13.838Z,15.09
2023-05-14T08:16:16.420Z,14.99
2023-05-14T08:19:20.584Z,14.89
2023-05-14T08:22:23.418Z,14.78
2023-05-14T08:25:25.849Z,14.88
2023-05-14T08:28:54.257Z,14.98
2023-05-14T08:32:05.806Z,15.13
2023-05-14T08:35:14.648Z,15.37
2023-05-14T08:38:17.632Z,15.32
2023-05-14T08:41:20.105Z,15.07
2023-05-14T08:44:40.243Z,15.26
2023-05-14T08:47:44.359Z,15.36
2023-05-14T08:50:48.633Z,15.27
2023-05-14T08:53:51.874Z,15.26
2023-05-14T09:00:12.771Z,15.70
2023-05-14T09:03:16.533Z,15.84
2023-05-14T09:06:19.534Z,15.75
2023-05-14T09:09:24.690Z,15.75
2023-05-14T09:12:27.207Z,15.87
2023-05-14T09:15:31.228Z,15.83
2023-05-14T09:18:36.042Z,16.00
2023-05-14T09:21:42.143Z,16.17
2023-05-14T09:24:45.327Z,16.47
2023-05-14T09:27:51.459Z,16.55
2023-05-14T09:30:55.694Z,16.79
2023-05-14T09:33:59.625Z,16.97
2023-05-14T09:37:04.027Z,16.92
2023-05-14T09:40:09.456Z,16.72
2023-05-14T09:43:14.405Z,16.55
2023-05-14T09:46:18.321Z,16.68
2023-05-14T09:49:23.016Z,17.41
2023-05-14T09:52:26.136Z,17.79
2023-05-14T09:55:29.288Z,17.73
2023-05-14T09:58:32.093Z,17.04
2023-05-14T10:01:36.924Z,16.93
2023-05-14T10:04:40.485Z,17.14
2023-05-14T10:07:50.821Z,17.48
2023-05-14T10:10:59.765Z,17.38
2023-05-14T10:14:06.698Z,17.40
2023-05-14T10:17:18.701Z,17.73
2023-05-14T10:20:23.107Z,17.63
2023-05-14T10:23:27.940Z,17.81
2023-05-14T10:26:32.473Z,17.85
2023-05-14T10:29:37.961Z,17.60
2023-05-14T10:32:42.180Z,17.55
2023-05-14T10:36:00.568Z,17.65
2023-05-14T10:39:06.344Z,17.55
2023-05-14T10:42:14.622Z,17.58
2023-05-14T10:45:17.172Z,18.06
2023-05-14T10:48:20.839Z,17.95
2023-05-14T10:51:24.136Z,17.75
2023-05-14T10:54:29.450Z,17.68
2023-05-14T10:57:32.864Z,18.05
2023-05-14T11:00:36.389Z,17.78
2023-05-14T11:03:43.054Z,18.06
2023-05-14T11:06:48.085Z,18.35
2023-05-14T11:09:51.395Z,18.35
2023-05-14T11:12:54.071Z,18.56
2023-05-14T11:15:57.142Z,18.77
2023-05-14T11:19:06.678Z,18.25
2023-05-14T11:22:09.195Z,18.05
2023-05-14T11:25:15.213Z,18.60
2023-05-14T11:28:21.558Z,18.93
2023-05-14T11:31:25.981Z,18.64
2023-05-14T11:34:29.222Z,18.52
2023-05-14T11:37:32.244Z,18.79
2023-05-14T11:40:35.952Z,19.00
2023-05-14T11:43:39.316Z,19.15
2023-05-14T11:46:42.355Z,18.94
2023-05-14T11:49:46.969Z,19.25
2023-05-14T11:52:51.003Z,19.32
2023-05-14T11:55:54.816Z,19.51
2023-05-14T11:59:00.120Z,19.66
2023-05-14T12:02:05.710Z,19.57
2023-05-14T12:05:09.380Z,19.62
2023-05-14T12:08:28.180Z,19.72
2023-05-14T12:11:35.460Z,19.89
2023-05-14T12:14:45.766Z,19.75
2023-05-14T12:18:25.040Z,19.86
2023-05-14T12:22:00.805Z,19.96
2023-05-14T12:25:20.505Z,20.09
2023-05-14T12:28:36.054Z,19.96
2023-05-14T12:31:47.857Z,20.03
2023-05-14T12:35:02.612Z,20.29
2023-05-14T12:38:34.603Z,20.25
2023-05-14T12:41:37.346Z,20.33
2023-05-14T12:44:42.755Z,20.29
2023-05-14T12:47:46.525Z,20.26
2023-05-14T12:50:49.407Z,20.20
2023-05-14T12:53:54.664Z,20.16
2023-05-14T12:56:58.639Z,20.13
2023-05-14T13:00:13.725Z,20.26
2023-05-14T13:03:37.195Z,20.00
2023-05-14T13:06:47.892Z,20.06
2023-05-14T13:09:50.484Z,20.09
2023-05-14T13:12:53.703Z,20.15
2023-05-14T13:16:00.398Z,19.68
2023-05-14T13:19:04.057Z,19.75
2023-05-14T13:22:10.688Z,19.97
2023-05-14T13:25:15.885Z,19.59
2023-05-14T13:28:18.712Z,19.14
2023-05-14T13:31:21.918Z,19.59
2023-05-14T13:34:24.381Z,19.15
2023-05-14T13:37:29.255Z,19.41
2023-05-14T13:40:33.688Z,19.62
2023-05-14T13:43:36.639Z,19.92
2023-05-14T13:46:42.566Z,19.73
2023-05-14T13:49:51.955Z,19.59
2023-05-14T13:53:03.483Z,19.54
2023-05-14T13:56:09.160Z,19.65
2023-05-14T13:59:17.332Z,19.90
2023-05-14T14:02:35.159Z,19.61
2023-05-14T14:05:37.905Z,19.12
2023-05-14T14:08:49.328Z,19.30
2023-05-14T14:11:52.149Z,19.39
2023-05-14T14:14:57.317Z,19.01
2023-05-14T14:17:59.767Z,19.15
2023-05-14T14:21:08.353Z,19.10
2023-05-14T14:24:35.142Z,18.91
2023-05-14T14:27:41.076Z,18.94
2023-05-14T14:31:38.315Z,18.93
2023-05-14T14:35:18.500Z,19.14
2023-05-14T14:38:22.220Z,19.18
2023-05-14T14:41:34.332Z,19.17
2023-05-14T14:44:38.894Z,19.04
2023-05-14T14:47:50.439Z,18.69
2023-05-14T14:50:54.572Z,18.59
2023-05-14T14:53:57.169Z,18.47
2023-05-14T14:57:00.434Z,18.36
2023-05-14T15:00:04.308Z,18.13
2023-05-14T15:03:11.872Z,18.05
2023-05-14T15:06:15.051Z,17.70
2023-05-14T15:09:18.004Z,17.68
2023-05-14T15:12:21.026Z,17.73
2023-05-14T15:15:25.441Z,17.64
2023-05-14T15:18:28.000Z,17.24
2023-05-14T15:21:34.194Z,17.11
2023-05-14T15:24:36.291Z,17.13
2023-05-14T15:27:38.962Z,16.92
2023-05-14T15:30:41.590Z,16.97
2023-05-14T15:33:45.684Z,17.03
2023-05-14T15:36:48.798Z,16.70
2023-05-14T15:39:51.454Z,16.56
2023-05-14T15:42:58.386Z,16.62
2023-05-14T15:46:01.650Z,16.58
2023-05-14T15:49:06.539Z,16.49
2023-05-14T15:52:19.369Z,16.62
2023-05-14T15:55:27.502Z,16.51
2023-05-14T15:58:31.469Z,16.33
2023-05-14T16:01:34.195Z,16.07
2023-05-14T16:04:38.969Z,16.21
2023-05-14T16:07:43.234Z,16.19
2023-05-14T16:10:47.286Z,16.28
2023-05-14T16:13:59.839Z,16.00
2023-05-14T16:17:18.542Z,15.64
2023-05-14T16:20:21.196Z,15.73
2023-05-14T16:23:50.866Z,15.54
2023-05-14T16:27:22.197Z,15.63
2023-05-14T16:31:04.072Z,15.53
2023-05-14T16:34:21.289Z,15.26
2023-05-14T16:37:24.937Z,15.07
2023-05-14T16:40:29.697Z,15.07
2023-05-14T16:45:41.381Z,14.79
2023-05-14T16:48:15.870Z,14.89
2023-05-14T16:51:51.675Z,14.62
2023-05-14T16:54:57.256Z,14.45
2023-05-14T16:58:00.730Z,14.31
2023-05-14T17:01:03.986Z,14.27
2023-05-14T17:04:06.695Z,14.13
2023-05-14T17:07:10.726Z,14.31
2023-05-14T17:10:14.162Z,14.11
2023-05-14T17:13:16.910Z,14.13
2023-05-14T17:16:39.149Z,14.13
2023-05-14T17:19:41.414Z,14.20
2023-05-14T17:22:47.031Z,14.13
2023-05-14T17:25:49.856Z,13.97
2023-05-14T17:28:53.460Z,13.98
2023-05-14T17:31:56.163Z,13.97
2023-05-14T17:34:58.802Z,13.80
2023-05-14T17:38:14.566Z,13.87
2023-05-14T17:41:51.261Z,13.76
2023-05-14T17:45:16.964Z,13.78
2023-05-14T17:48:34.230Z,13.90
2023-05-14T17:51:37.090Z,13.88
2023-05-14T17:54:53.958Z,13.84
2023-05-14T17:57:58.811Z,13.83
2023-05-14T18:01:02.130Z,13.90
2023-05-14T18:04:05.847Z,13.83
2023-05-14T18:07:21.824Z,13.78
2023-05-14T18:10:30.176Z,13.71
2023-05-14T18:13:33.490Z,13.63
2023-05-14T18:16:43.080Z,13.65
2023-05-14T18:19:45.585Z,13.60
2023-05-14T18:22:48.319Z,13.63
2023-05-14T18:25:51.987Z,13.60
2023-05-14T18:28:58.359Z,13.57
2023-05-14T18:32:00.943Z,13.59
2023-05-14T18:38:23.801Z,13.59
2023-05-14T18:41:29.018Z,13.49
2023-05-14T18:44:34.978Z,13.40
2023-05-14T18:47:49.897Z,13.50
2023-05-14T18:50:52.386Z,13.40
2023-05-14T18:57:12.516Z,13.43
2023-05-14T19:00:16.455Z,13.27
2023-05-14T19:03:20.889Z,13.18
2023-05-14T19:06:24.129Z,13.11
2023-05-14T19:09:26.918Z,13.15
2023-05-14T19:12:31.723Z,12.98
2023-05-14T19:15:35.722Z,13.11
2023-05-14T19:18:39.335Z,13.06
2023-05-14T19:21:41.877Z,12.98
2023-05-14T19:24:46.215Z,13.12
2023-05-14T19:27:51.281Z,13.32
2023-05-14T19:30:54.562Z,13.50
2023-05-14T19:33:56.845Z,14.25
2023-05-14T19:36:59.712Z,14.45
2023-05-14T19:40:02.569Z,14.41
2023-05-14T19:43:05.440Z,14.81
2023-05-14T19:46:08.782Z,14.54
2023-05-14T19:49:12.262Z,14.31
2023-05-14T19:52:15.477Z,14.30
2023-05-14T19:55:18.477Z,14.11
2023-05-14T19:58:22.640Z,13.97
2023-05-14T20:01:27.006Z,14.07
2023-05-14T20:04:30.575Z,14.92
2023-05-14T20:07:39.617Z,14.93
2023-05-14T20:10:43.269Z,14.62
2023-05-14T20:13:49.469Z,14.17
2023-05-14T20:16:52.245Z,14.06
2023-05-14T20:19:55.619Z,13.96
2023-05-14T20:22:58.076Z,13.86
2023-05-14T20:26:04.690Z,13.55
2023-05-14T20:29:11.600Z,12.99
2023-05-14T20:32:15.906Z,12.68
2023-05-14T20:35:19.127Z,12.85
2023-05-14T20:38:22.351Z,12.87
2023-05-14T20:41:24.565Z,12.99
2023-05-14T20:44:27.377Z,13.25
2023-05-14T20:47:33.446Z,13.16
2023-05-14T20:50:36.719Z,13.04
2023-05-14T20:53:39.302Z,14.34
2023-05-14T20:56:43.043Z,15.81
2023-05-14T20:59:49.147Z,16.68
2023-05-14T21:02:52.694Z,17.07
2023-05-14T21:05:57.007Z,16.84
2023-05-14T21:08:59.750Z,14.96
2023-05-14T21:12:06.498Z,14.31
2023-05-14T21:15:10.332Z,14.95
2023-05-14T21:18:13.886Z,16.21
2023-05-14T21:21:16.543Z,16.07
2023-05-14T21:24:19.598Z,15.13
2023-05-14T21:27:23.518Z,14.57
2023-05-14T21:30:25.678Z,14.52
2023-05-14T21:33:28.603Z,14.38
2023-05-14T21:36:31.515Z,13.15
2023-05-14T21:39:34.550Z,12.34
2023-05-14T21:42:38.530Z,12.20
2023-05-14T21:45:43.410Z,12.78
2023-05-14T21:48:48.700Z,13.36
2023-05-14T21:51:55.272Z,14.89
2023-05-14T21:54:57.465Z,16.24
2023-05-14T21:58:01.016Z,16.82
2023-05-14T22:01:03.782Z,17.31
2023-05-14T22:04:06.849Z,17.41
2023-05-14T22:07:08.988Z,16.45
2023-05-14T22:10:17.332Z,15.93
2023-05-14T22:13:23.807Z,15.61
2023-05-14T22:16:27.885Z,16.82
2023-05-14T22:19:30.282Z,17.13
2023-05-14T22:22:53.545Z,17.57
2023-05-14T22:25:56.390Z,17.09
2023-05-14T22:29:00.482Z,15.66
2023-05-14T22:32:04.535Z,14.89
2023-05-14T22:35:07.449Z,14.20
2023-05-14T22:38:09.746Z,13.26
2023-05-14T22:41:12.935Z,12.94
2023-05-14T22:44:15.118Z,12.42
2023-05-14T22:47:18.693Z,12.37
2023-05-14T22:50:22.103Z,12.51
2023-05-14T22:53:26.132Z,12.33
2023-05-14T22:56:28.748Z,12.16
2023-05-14T22:59:31.582Z,12.30
2023-05-14T23:02:33.725Z,12.36
2023-05-14T23:05:36.983Z,12.55
2023-05-14T23:08:39.278Z,13.06
2023-05-14T23:11:41.959Z,13.90
2023-05-14T23:14:44.330Z,14.14
2023-05-14T23:17:47.367Z,14.61
2023-05-14T23:20:50.467Z,13.66
2023-05-14T23:23:53.016Z,13.59
2023-05-14T23:26:55.901Z,14.04
2023-05-14T23:29:59.115Z,13.52
2023-05-14T23:33:01.421Z,13.29
2023-05-14T23:36:04.055Z,13.46
2023-05-14T23:39:06.582Z,15.32
2023-05-14T23:42:10.071Z,15.06
2023-05-14T23:45:13.684Z,13.60
2023-05-14T23:48:16.238Z,12.87
2023-05-14T23:51:18.966Z,12.52
2023-05-14T23:54:21.798Z,13.36
2023-05-14T23:57:24.088Z,14.11
